createdAt,value
2018-06-08T16:18:36.960Z,11.10
2018-06-08T16:21:06.579Z,5.30
2018-06-08T16:23:36.201Z,6.95
2018-06-08T16:26:05.884Z,2.30
2018-06-08T16:28:35.341Z,2.02
2018-06-08T16:31:10.452Z,5.03
2018-06-08T16:33:45.540Z,2.60
2018-06-08T16:36:20.418Z,4.05
2018-06-08T16:38:55.575Z,3.22
2018-06-08T16:41:30.733Z,4.97
2018-06-08T16:45:29.009Z,5.60
2018-06-08T16:48:04.039Z,3.27
2018-06-08T16:50:39.274Z,3.62
2018-06-08T16:53:14.472Z,4.78
2018-06-08T16:55:49.404Z,3.70
2018-06-08T16:58:24.534Z,4.40
2018-06-08T17:01:00.646Z,8.43
2018-06-08T17:03:35.889Z,3.90
2018-06-08T17:06:10.851Z,5.40
2018-06-08T17:08:45.957Z,4.97
2018-06-08T17:11:21.066Z,5.30
2018-06-08T17:13:56.311Z,3.37
2018-06-08T17:16:31.413Z,4.80
2018-06-08T17:19:06.504Z,4.37
2018-06-08T17:21:41.537Z,4.13
2018-06-08T17:24:16.585Z,6.90
2018-06-08T17:26:51.676Z,4.73
2018-06-08T17:29:27.046Z,5.57
2018-06-08T17:32:02.357Z,6.20
2018-06-08T17:34:37.589Z,4.30
2018-06-08T17:37:12.885Z,5.37
2018-06-08T17:39:48.462Z,9.37
2018-06-08T17:42:23.755Z,3.90
2018-06-08T17:44:59.144Z,5.87
2018-06-08T17:47:34.350Z,5.33
2018-06-08T17:50:11.171Z,4.12
2018-06-08T17:52:46.425Z,3.67
2018-06-08T17:55:21.466Z,5.23
2018-06-08T17:57:56.416Z,7.67
2018-06-08T18:00:32.702Z,3.08
2018-06-08T18:03:07.793Z,7.17
2018-06-08T18:05:42.909Z,6.60
2018-06-08T18:08:18.132Z,5.47
2018-06-08T18:30:16.287Z,4.15
2018-06-08T18:32:51.416Z,10.90
2018-06-08T18:35:26.621Z,2.83
2018-06-08T18:38:01.633Z,3.30
2018-06-08T18:56:18.437Z,2.90
2018-06-08T18:58:53.630Z,12.23
2018-06-08T19:01:29.551Z,3.97
2018-06-08T19:04:04.522Z,13.77
2018-06-08T19:06:39.926Z,8.67
2018-06-08T19:09:14.990Z,3.37
2018-06-08T19:11:50.295Z,5.73
2018-06-08T19:14:25.241Z,7.53
2018-06-08T19:17:00.582Z,6.80
2018-06-08T19:19:35.903Z,44.27
2018-06-08T19:22:11.365Z,8.95
2018-06-08T19:24:46.463Z,6.33
2018-06-08T19:27:21.801Z,5.00
2018-06-08T19:29:56.796Z,4.03
2018-06-08T19:32:32.244Z,5.77
2018-06-08T19:35:07.247Z,5.87
2018-06-08T19:37:42.498Z,5.70
2018-06-08T19:56:01.109Z,4.83
2018-06-08T19:58:35.719Z,6.60
2018-06-08T20:01:10.837Z,2.90
2018-06-08T20:03:45.889Z,3.20
2018-06-08T20:06:20.913Z,6.90
2018-06-08T20:08:56.191Z,17.80
2018-06-08T20:11:31.319Z,13.17
2018-06-08T20:14:06.276Z,11.77
2018-06-08T20:16:41.524Z,6.40
2018-06-08T20:19:17.163Z,5.27
2018-06-08T20:21:53.409Z,11.87
2018-06-08T20:24:28.607Z,14.03
2018-06-08T20:27:03.669Z,5.63
2018-06-08T20:29:38.779Z,10.83
2018-06-08T20:32:13.805Z,9.83
2018-06-08T20:34:48.942Z,9.30
2018-06-08T20:37:24.773Z,11.93
2018-06-08T20:39:59.732Z,9.60
2018-06-08T20:42:34.978Z,7.57
2018-06-08T20:45:10.452Z,6.60
2018-06-08T20:47:45.613Z,6.83
2018-06-08T20:55:49.310Z,5.08
2018-06-08T20:58:27.359Z,6.57
2018-06-08T21:01:03.716Z,3.35
2018-06-08T21:03:38.943Z,3.90
2018-06-08T21:06:14.464Z,5.77
2018-06-08T21:08:50.153Z,9.13
2018-06-08T21:11:25.502Z,11.93
2018-06-08T21:14:00.837Z,5.90
2018-06-08T21:16:36.212Z,13.37
2018-06-08T21:19:11.617Z,16.10
2018-06-08T21:21:46.986Z,41.20
2018-06-08T21:24:22.177Z,39.63
2018-06-08T21:26:57.195Z,36.70
2018-06-08T21:29:32.472Z,44.67
2018-06-08T21:32:07.709Z,15.53
2018-06-08T21:34:42.649Z,8.60
2018-06-08T21:37:17.624Z,29.27
2018-06-08T21:39:52.972Z,25.73
2018-06-08T21:42:28.120Z,20.50
2018-06-08T21:45:03.217Z,11.30
2018-06-08T21:47:38.622Z,41.10
2018-06-08T21:55:34.112Z,41.42
2018-06-08T21:58:09.219Z,17.43
2018-06-08T22:00:45.288Z,14.87
2018-06-08T22:03:20.654Z,62.57
2018-06-08T22:05:55.787Z,54.37
2018-06-08T22:08:31.370Z,30.53
2018-06-08T22:11:06.620Z,47.50
2018-06-08T22:13:41.792Z,89.37
2018-06-08T22:16:17.117Z,119.80
2018-06-08T22:18:51.995Z,137.33
2018-06-08T22:21:27.168Z,14.03
2018-06-08T22:24:02.183Z,44.77
2018-06-08T22:26:37.216Z,56.33
2018-06-08T22:29:12.239Z,50.73
2018-06-08T22:31:47.412Z,27.90
2018-06-08T22:34:22.505Z,8.20
2018-06-08T22:36:57.788Z,4.73
2018-06-08T22:39:32.873Z,6.03
2018-06-08T22:42:08.165Z,7.10
2018-06-08T22:44:43.211Z,5.80
2018-06-08T22:47:18.353Z,7.77
2018-06-08T22:49:53.289Z,6.10
2018-06-08T22:52:28.549Z,6.90
2018-06-08T22:55:03.664Z,5.67
2018-06-08T22:57:38.687Z,8.03
2018-06-08T23:00:16.537Z,6.58
2018-06-08T23:02:51.584Z,6.27
2018-06-08T23:05:26.701Z,4.23
2018-06-08T23:08:01.961Z,5.27
2018-06-08T23:36:28.685Z,5.15
2018-06-08T23:39:05.649Z,5.77
2018-06-08T23:41:40.725Z,3.80
2018-06-08T23:44:15.721Z,4.87
2018-06-08T23:46:50.778Z,4.57
2018-06-08T23:49:25.842Z,4.20
2018-06-08T23:52:01.021Z,5.87
2018-06-08T23:54:36.010Z,3.33
2018-06-08T23:57:11.220Z,5.23
2018-06-08T23:59:46.288Z,7.33
